Strona główna
METAR-TAF:

METAR-TAF

Lotnisko :

Port lotniczy Newcastle

Newcastle, Anglia

Szerokość geograficzna: 55-02N, Długość geograficzna: 001-42W, wysokość: 81 m

Aktualna obserwacja pogody

Raport powstał 26 minut temu, godzina 10:20 UTC
Wiatr 3 kt z kierunków zmiennych
Temperatura 13°C
Wilgotność 72%
Ciśnienie 1024 hPa
Widzialność: 8000 m

METAR: EGNT 101020Z VRB03KT 8000 NSC 13/08 Q1024

czas: 11:46 (10:46 UTC)

Prognoza

Raport powstał 1 godzina i 14 minut temu, godzina 09:32 UTC
Prognoza ważna od 10 godzina 09 UTC do 10 godzina 13 UTC
Wiatr 5 kt od południe
Widzialność: 6000 m
Rozproszone chmury na wysokości 1000 ft
Stopniowe zmiany
od 10 godzina 10 UTC do 10 godzina 13 UTC
Widzialność 10 km lub więcej

TAF: EGNT 100932Z 1009/1013 18005KT 6000 SCT010 BECMG 1010/1013 9999

Obserwacja i prognoza pogody dla ponad 4000 lotnisk (raport METAR i TAF).

Dostępne stacje oznaczono żółtymi i czerwonymi punktami na mapie.

Najedź kursorem aby zobaczyć nazwę stacji.

Kliknij aby zobaczyć obserwacje i prognozy pogody.

Aby zmienić mapę: kliknij na zielony przycisk z czarnym krzyżykiem, aby powiększyć; na zielony przycisk z myślnikiem, aby pomniejszyć; na zielone strzałki, aby przejść do map sąsiednich.


METAR-TAF: